sensor_id;sensor_type;location;lat;lon;timestamp;P1;durP1;ratioP1;P2;durP2;ratioP2
67747;SDS011;54543;50.712;6.070;2023-04-24T00:01:31;4.72;;;2.13;;
67747;SDS011;54543;50.712;6.070;2023-04-24T00:03:59;4.65;;;2.40;;
67747;SDS011;54543;50.712;6.070;2023-04-24T00:06:29;3.67;;;2.20;;
67747;SDS011;54543;50.712;6.070;2023-04-24T00:08:59;4.00;;;2.28;;
67747;SDS011;54543;50.712;6.070;2023-04-24T00:11:25;4.18;;;2.20;;
67747;SDS011;54543;50.712;6.070;2023-04-24T00:13:52;3.22;;;2.00;;
67747;SDS011;54543;50.712;6.070;2023-04-24T00:16:18;5.03;;;2.30;;
67747;SDS011;54543;50.712;6.070;2023-04-24T00:18:43;4.70;;;3.08;;
67747;SDS011;54543;50.712;6.070;2023-04-24T00:21:10;6.07;;;3.30;;
67747;SDS011;54543;50.712;6.070;2023-04-24T00:23:36;5.00;;;2.90;;
67747;SDS011;54543;50.712;6.070;2023-04-24T00:26:02;4.80;;;3.00;;
67747;SDS011;54543;50.712;6.070;2023-04-24T00:28:27;9.55;;;3.83;;
67747;SDS011;54543;50.712;6.070;2023-04-24T00:30:53;5.13;;;3.25;;
67747;SDS011;54543;50.712;6.070;2023-04-24T00:33:19;6.45;;;4.03;;
67747;SDS011;54543;50.712;6.070;2023-04-24T00:35:45;7.22;;;3.83;;
67747;SDS011;54543;50.712;6.070;2023-04-24T00:38:10;5.63;;;3.55;;
67747;SDS011;54543;50.712;6.070;2023-04-24T00:40:36;5.72;;;3.63;;
67747;SDS011;54543;50.712;6.070;2023-04-24T00:43:01;6.10;;;3.97;;
67747;SDS011;54543;50.712;6.070;2023-04-24T00:45:27;5.50;;;3.30;;
67747;SDS011;54543;50.712;6.070;2023-04-24T00:47:53;8.07;;;4.95;;
67747;SDS011;54543;50.712;6.070;2023-04-24T00:50:19;8.10;;;4.22;;
67747;SDS011;54543;50.712;6.070;2023-04-24T00:52:46;8.35;;;5.50;;
67747;SDS011;54543;50.712;6.070;2023-04-24T00:55:12;8.82;;;5.50;;
67747;SDS011;54543;50.712;6.070;2023-04-24T00:57:38;10.15;;;6.03;;
67747;SDS011;54543;50.712;6.070;2023-04-24T01:00:04;6.95;;;4.80;;
67747;SDS011;54543;50.712;6.070;2023-04-24T01:02:31;10.32;;;5.32;;
67747;SDS011;54543;50.712;6.070;2023-04-24T01:05:00;9.50;;;4.65;;
67747;SDS011;54543;50.712;6.070;2023-04-24T01:07:26;7.20;;;5.18;;
67747;SDS011;54543;50.712;6.070;2023-04-24T01:09:52;6.93;;;4.78;;
67747;SDS011;54543;50.712;6.070;2023-04-24T01:12:18;6.50;;;4.63;;
67747;SDS011;54543;50.712;6.070;2023-04-24T01:14:44;7.25;;;4.60;;
67747;SDS011;54543;50.712;6.070;2023-04-24T01:17:11;7.30;;;4.00;;
67747;SDS011;54543;50.712;6.070;2023-04-24T01:19:37;6.18;;;3.95;;
67747;SDS011;54543;50.712;6.070;2023-04-24T01:22:03;7.65;;;4.70;;
67747;SDS011;54543;50.712;6.070;2023-04-24T01:24:33;6.85;;;4.50;;
67747;SDS011;54543;50.712;6.070;2023-04-24T01:26:59;7.88;;;4.20;;
67747;SDS011;54543;50.712;6.070;2023-04-24T01:29:26;6.50;;;4.13;;
67747;SDS011;54543;50.712;6.070;2023-04-24T01:31:52;7.47;;;4.78;;
67747;SDS011;54543;50.712;6.070;2023-04-24T01:34:18;9.15;;;5.50;;
67747;SDS011;54543;50.712;6.070;2023-04-24T01:36:45;7.10;;;4.53;;
67747;SDS011;54543;50.712;6.070;2023-04-24T01:39:11;7.47;;;5.05;;
67747;SDS011;54543;50.712;6.070;2023-04-24T01:41:37;5.88;;;4.28;;
67747;SDS011;54543;50.712;6.070;2023-04-24T01:44:03;8.98;;;4.63;;
67747;SDS011;54543;50.712;6.070;2023-04-24T01:46:29;7.53;;;4.55;;
67747;SDS011;54543;50.712;6.070;2023-04-24T01:48:55;6.03;;;3.80;;
67747;SDS011;54543;50.712;6.070;2023-04-24T01:51:21;5.07;;;3.42;;
67747;SDS011;54543;50.712;6.070;2023-04-24T01:53:47;5.50;;;3.30;;
67747;SDS011;54543;50.712;6.070;2023-04-24T01:56:14;5.63;;;3.65;;
67747;SDS011;54543;50.712;6.070;2023-04-24T01:58:40;5.97;;;3.65;;
67747;SDS011;54543;50.712;6.070;2023-04-24T02:01:06;4.72;;;3.03;;
67747;SDS011;54543;50.712;6.070;2023-04-24T02:03:32;7.55;;;4.97;;
67747;SDS011;54543;50.712;6.070;2023-04-24T02:05:57;8.13;;;5.28;;
67747;SDS011;54543;50.712;6.070;2023-04-24T02:08:23;7.95;;;5.22;;
67747;SDS011;54543;50.712;6.070;2023-04-24T02:10:49;7.80;;;5.13;;
67747;SDS011;54543;50.712;6.070;2023-04-24T02:13:15;8.85;;;5.45;;
67747;SDS011;54543;50.712;6.070;2023-04-24T02:15:40;8.80;;;5.07;;
67747;SDS011;54543;50.712;6.070;2023-04-24T02:18:06;9.50;;;5.22;;
67747;SDS011;54543;50.712;6.070;2023-04-24T02:20:32;7.80;;;5.03;;
67747;SDS011;54543;50.712;6.070;2023-04-24T02:22:59;7.18;;;4.63;;
67747;SDS011;54543;50.712;6.070;2023-04-24T02:25:24;7.22;;;4.60;;
67747;SDS011;54543;50.712;6.070;2023-04-24T02:27:50;7.53;;;4.38;;
67747;SDS011;54543;50.712;6.070;2023-04-24T02:30:15;6.70;;;4.03;;
67747;SDS011;54543;50.712;6.070;2023-04-24T02:32:41;9.13;;;5.13;;
67747;SDS011;54543;50.712;6.070;2023-04-24T02:35:07;7.95;;;4.57;;
67747;SDS011;54543;50.712;6.070;2023-04-24T02:37:33;7.22;;;4.85;;
67747;SDS011;54543;50.712;6.070;2023-04-24T02:39:58;7.80;;;5.30;;
67747;SDS011;54543;50.712;6.070;2023-04-24T02:42:24;8.50;;;5.47;;
67747;SDS011;54543;50.712;6.070;2023-04-24T02:44:50;9.13;;;4.93;;
67747;SDS011;54543;50.712;6.070;2023-04-24T02:47:16;6.07;;;3.97;;
67747;SDS011;54543;50.712;6.070;2023-04-24T02:49:42;8.73;;;5.30;;
67747;SDS011;54543;50.712;6.070;2023-04-24T02:52:07;6.80;;;4.10;;
67747;SDS011;54543;50.712;6.070;2023-04-24T02:54:33;7.00;;;4.15;;
67747;SDS011;54543;50.712;6.070;2023-04-24T02:56:58;9.70;;;5.30;;
67747;SDS011;54543;50.712;6.070;2023-04-24T02:59:26;9.35;;;5.90;;
67747;SDS011;54543;50.712;6.070;2023-04-24T03:01:53;6.93;;;4.80;;
67747;SDS011;54543;50.712;6.070;2023-04-24T03:04:19;9.27;;;5.35;;
67747;SDS011;54543;50.712;6.070;2023-04-24T03:06:45;7.13;;;5.07;;
67747;SDS011;54543;50.712;6.070;2023-04-24T03:09:11;7.65;;;4.82;;
67747;SDS011;54543;50.712;6.070;2023-04-24T03:11:36;7.28;;;4.57;;
67747;SDS011;54543;50.712;6.070;2023-04-24T03:14:02;9.05;;;5.45;;
67747;SDS011;54543;50.712;6.070;2023-04-24T03:16:27;11.25;;;6.13;;
67747;SDS011;54543;50.712;6.070;2023-04-24T03:18:53;10.88;;;6.60;;
67747;SDS011;54543;50.712;6.070;2023-04-24T04:55:30;18.70;;;10.82;;
67747;SDS011;54543;50.712;6.070;2023-04-24T04:57:56;18.35;;;10.85;;
67747;SDS011;54543;50.712;6.070;2023-04-24T05:00:22;14.35;;;8.77;;
67747;SDS011;54543;50.712;6.070;2023-04-24T05:02:51;17.90;;;10.60;;
67747;SDS011;54543;50.712;6.070;2023-04-24T05:05:17;16.95;;;9.68;;
67747;SDS011;54543;50.712;6.070;2023-04-24T05:07:43;14.02;;;7.28;;
67747;SDS011;54543;50.712;6.070;2023-04-24T05:10:09;9.82;;;6.72;;
67747;SDS011;54543;50.712;6.070;2023-04-24T05:12:36;16.23;;;9.13;;
67747;SDS011;54543;50.712;6.070;2023-04-24T05:15:02;18.55;;;9.07;;
67747;SDS011;54543;50.712;6.070;2023-04-24T05:17:28;21.10;;;8.95;;
67747;SDS011;54543;50.712;6.070;2023-04-24T05:19:54;19.88;;;8.15;;
67747;SDS011;54543;50.712;6.070;2023-04-24T05:22:20;12.10;;;7.05;;
67747;SDS011;54543;50.712;6.070;2023-04-24T05:24:46;19.55;;;8.50;;
67747;SDS011;54543;50.712;6.070;2023-04-24T05:27:13;11.15;;;6.18;;
67747;SDS011;54543;50.712;6.070;2023-04-24T05:29:39;22.90;;;11.75;;
67747;SDS011;54543;50.712;6.070;2023-04-24T05:32:05;19.55;;;8.52;;
67747;SDS011;54543;50.712;6.070;2023-04-24T05:34:31;27.95;;;15.02;;
67747;SDS011;54543;50.712;6.070;2023-04-24T05:36:57;29.33;;;17.30;;
67747;SDS011;54543;50.712;6.070;2023-04-24T05:39:29;38.78;;;20.13;;
67747;SDS011;54543;50.712;6.070;2023-04-24T05:41:54;45.45;;;25.80;;
67747;SDS011;54543;50.712;6.070;2023-04-24T05:44:23;26.67;;;15.23;;
67747;SDS011;54543;50.712;6.070;2023-04-24T05:46:48;22.85;;;14.38;;
67747;SDS011;54543;50.712;6.070;2023-04-24T05:49:14;15.65;;;8.85;;
67747;SDS011;54543;50.712;6.070;2023-04-24T05:51:40;12.70;;;8.00;;
67747;SDS011;54543;50.712;6.070;2023-04-24T05:54:07;11.10;;;7.65;;
67747;SDS011;54543;50.712;6.070;2023-04-24T05:56:32;20.00;;;10.75;;
67747;SDS011;54543;50.712;6.070;2023-04-24T05:58:58;12.68;;;7.38;;
67747;SDS011;54543;50.712;6.070;2023-04-24T06:01:23;9.80;;;6.97;;
67747;SDS011;54543;50.712;6.070;2023-04-24T06:03:51;11.68;;;7.03;;
67747;SDS011;54543;50.712;6.070;2023-04-24T06:06:17;14.93;;;8.70;;
67747;SDS011;54543;50.712;6.070;2023-04-24T06:08:45;9.88;;;6.60;;
67747;SDS011;54543;50.712;6.070;2023-04-24T06:11:10;14.05;;;6.80;;
67747;SDS011;54543;50.712;6.070;2023-04-24T06:13:36;9.23;;;5.78;;
67747;SDS011;54543;50.712;6.070;2023-04-24T06:16:02;9.15;;;5.05;;
67747;SDS011;54543;50.712;6.070;2023-04-24T06:18:28;8.82;;;5.45;;
67747;SDS011;54543;50.712;6.070;2023-04-24T06:20:53;10.43;;;5.10;;
67747;SDS011;54543;50.712;6.070;2023-04-24T06:23:20;6.78;;;4.65;;
67747;SDS011;54543;50.712;6.070;2023-04-24T06:25:45;6.43;;;4.47;;
67747;SDS011;54543;50.712;6.070;2023-04-24T06:28:12;7.00;;;4.47;;
67747;SDS011;54543;50.712;6.070;2023-04-24T06:30:38;7.40;;;4.22;;
67747;SDS011;54543;50.712;6.070;2023-04-24T06:33:04;8.18;;;5.10;;
67747;SDS011;54543;50.712;6.070;2023-04-24T06:35:30;5.75;;;3.45;;
67747;SDS011;54543;50.712;6.070;2023-04-24T06:37:55;4.80;;;3.10;;
67747;SDS011;54543;50.712;6.070;2023-04-24T06:40:21;8.25;;;4.68;;
67747;SDS011;54543;50.712;6.070;2023-04-24T06:42:47;12.05;;;7.93;;
67747;SDS011;54543;50.712;6.070;2023-04-24T06:45:13;24.35;;;18.92;;
67747;SDS011;54543;50.712;6.070;2023-04-24T06:47:38;10.32;;;7.35;;
67747;SDS011;54543;50.712;6.070;2023-04-24T06:50:04;9.63;;;6.75;;
67747;SDS011;54543;50.712;6.070;2023-04-24T06:52:30;6.50;;;5.55;;
67747;SDS011;54543;50.712;6.070;2023-04-24T06:55:00;12.20;;;8.98;;
67747;SDS011;54543;50.712;6.070;2023-04-24T06:57:29;6.95;;;5.53;;
67747;SDS011;54543;50.712;6.070;2023-04-24T06:59:55;5.82;;;3.40;;
67747;SDS011;54543;50.712;6.070;2023-04-24T07:02:20;4.95;;;3.08;;
67747;SDS011;54543;50.712;6.070;2023-04-24T07:04:46;6.07;;;3.40;;
67747;SDS011;54543;50.712;6.070;2023-04-24T07:07:13;5.22;;;3.30;;
67747;SDS011;54543;50.712;6.070;2023-04-24T07:09:39;5.25;;;2.83;;
67747;SDS011;54543;50.712;6.070;2023-04-24T07:12:09;7.78;;;4.20;;
67747;SDS011;54543;50.712;6.070;2023-04-24T07:14:38;4.55;;;2.97;;
67747;SDS011;54543;50.712;6.070;2023-04-24T07:17:05;6.25;;;3.30;;
67747;SDS011;54543;50.712;6.070;2023-04-24T07:19:32;5.10;;;3.30;;
67747;SDS011;54543;50.712;6.070;2023-04-24T07:21:58;7.20;;;3.70;;
67747;SDS011;54543;50.712;6.070;2023-04-24T07:24:25;7.10;;;3.60;;
67747;SDS011;54543;50.712;6.070;2023-04-24T07:26:51;8.38;;;4.88;;
67747;SDS011;54543;50.712;6.070;2023-04-24T07:29:17;8.25;;;4.78;;
67747;SDS011;54543;50.712;6.070;2023-04-24T07:31:43;7.22;;;3.70;;
67747;SDS011;54543;50.712;6.070;2023-04-24T07:34:09;7.97;;;4.45;;
67747;SDS011;54543;50.712;6.070;2023-04-24T07:36:35;8.00;;;4.18;;
67747;SDS011;54543;50.712;6.070;2023-04-24T07:39:03;8.40;;;4.68;;
67747;SDS011;54543;50.712;6.070;2023-04-24T07:41:33;7.05;;;4.00;;
67747;SDS011;54543;50.712;6.070;2023-04-24T07:43:59;9.50;;;4.93;;
67747;SDS011;54543;50.712;6.070;2023-04-24T07:46:25;9.48;;;3.90;;
67747;SDS011;54543;50.712;6.070;2023-04-24T07:48:55;8.68;;;4.80;;
67747;SDS011;54543;50.712;6.070;2023-04-24T07:51:21;11.75;;;6.20;;
67747;SDS011;54543;50.712;6.070;2023-04-24T07:53:48;9.38;;;4.53;;
67747;SDS011;54543;50.712;6.070;2023-04-24T07:56:13;7.72;;;4.53;;
67747;SDS011;54543;50.712;6.070;2023-04-24T07:58:39;15.18;;;8.38;;
67747;SDS011;54543;50.712;6.070;2023-04-24T08:01:06;10.63;;;5.60;;
67747;SDS011;54543;50.712;6.070;2023-04-24T08:03:32;10.60;;;5.15;;
67747;SDS011;54543;50.712;6.070;2023-04-24T08:05:58;12.20;;;5.88;;
67747;SDS011;54543;50.712;6.070;2023-04-24T08:08:26;9.32;;;5.07;;
67747;SDS011;54543;50.712;6.070;2023-04-24T08:10:51;12.43;;;6.32;;
67747;SDS011;54543;50.712;6.070;2023-04-24T08:13:17;12.38;;;6.90;;
67747;SDS011;54543;50.712;6.070;2023-04-24T08:15:44;11.88;;;5.90;;
67747;SDS011;54543;50.712;6.070;2023-04-24T08:18:09;10.77;;;6.43;;
67747;SDS011;54543;50.712;6.070;2023-04-24T08:20:37;9.95;;;5.65;;
67747;SDS011;54543;50.712;6.070;2023-04-24T08:23:03;9.38;;;4.18;;
67747;SDS011;54543;50.712;6.070;2023-04-24T08:25:29;8.35;;;4.95;;
67747;SDS011;54543;50.712;6.070;2023-04-24T08:27:54;10.27;;;5.93;;
67747;SDS011;54543;50.712;6.070;2023-04-24T08:30:21;7.07;;;4.53;;
67747;SDS011;54543;50.712;6.070;2023-04-24T08:32:47;6.72;;;4.20;;
67747;SDS011;54543;50.712;6.070;2023-04-24T08:35:14;8.60;;;4.20;;
67747;SDS011;54543;50.712;6.070;2023-04-24T08:37:39;7.20;;;3.95;;
67747;SDS011;54543;50.712;6.070;2023-04-24T08:40:11;7.68;;;3.75;;
67747;SDS011;54543;50.712;6.070;2023-04-24T08:42:39;11.52;;;5.78;;
67747;SDS011;54543;50.712;6.070;2023-04-24T08:45:09;13.05;;;6.88;;
67747;SDS011;54543;50.712;6.070;2023-04-24T08:47:37;22.33;;;9.68;;
67747;SDS011;54543;50.712;6.070;2023-04-24T08:50:05;19.67;;;8.98;;
67747;SDS011;54543;50.712;6.070;2023-04-24T08:52:32;16.45;;;8.68;;
67747;SDS011;54543;50.712;6.070;2023-04-24T08:55:02;18.02;;;9.68;;
67747;SDS011;54543;50.712;6.070;2023-04-24T08:57:28;22.52;;;10.32;;
67747;SDS011;54543;50.712;6.070;2023-04-24T08:59:55;22.98;;;11.23;;
67747;SDS011;54543;50.712;6.070;2023-04-24T09:02:23;20.00;;;9.98;;
67747;SDS011;54543;50.712;6.070;2023-04-24T09:04:49;19.60;;;9.70;;
67747;SDS011;54543;50.712;6.070;2023-04-24T09:07:16;20.98;;;10.52;;
67747;SDS011;54543;50.712;6.070;2023-04-24T09:09:43;17.60;;;10.65;;
67747;SDS011;54543;50.712;6.070;2023-04-24T09:12:09;21.90;;;10.95;;
67747;SDS011;54543;50.712;6.070;2023-04-24T09:14:35;30.58;;;13.32;;
67747;SDS011;54543;50.712;6.070;2023-04-24T09:17:04;21.60;;;10.13;;
67747;SDS011;54543;50.712;6.070;2023-04-24T09:19:31;19.80;;;10.18;;
67747;SDS011;54543;50.712;6.070;2023-04-24T09:21:57;20.67;;;9.57;;
67747;SDS011;54543;50.712;6.070;2023-04-24T09:24:22;17.65;;;8.85;;
67747;SDS011;54543;50.712;6.070;2023-04-24T09:26:48;20.70;;;9.57;;
67747;SDS011;54543;50.712;6.070;2023-04-24T09:29:22;18.35;;;8.85;;
67747;SDS011;54543;50.712;6.070;2023-04-24T09:31:47;15.18;;;7.18;;
67747;SDS011;54543;50.712;6.070;2023-04-24T09:34:13;19.60;;;8.48;;
67747;SDS011;54543;50.712;6.070;2023-04-24T09:36:40;19.35;;;8.23;;
67747;SDS011;54543;50.712;6.070;2023-04-24T09:39:14;11.98;;;7.18;;
67747;SDS011;54543;50.712;6.070;2023-04-24T09:44:14;13.30;;;7.10;;
67747;SDS011;54543;50.712;6.070;2023-04-24T09:46:41;13.05;;;6.38;;
67747;SDS011;54543;50.712;6.070;2023-04-24T09:49:08;13.80;;;6.65;;
67747;SDS011;54543;50.712;6.070;2023-04-24T09:51:37;18.13;;;7.40;;
67747;SDS011;54543;50.712;6.070;2023-04-24T09:54:04;10.95;;;6.10;;
67747;SDS011;54543;50.712;6.070;2023-04-24T09:56:35;15.15;;;6.60;;
67747;SDS011;54543;50.712;6.070;2023-04-24T09:59:07;15.50;;;7.43;;
67747;SDS011;54543;50.712;6.070;2023-04-24T10:01:33;10.00;;;5.50;;
67747;SDS011;54543;50.712;6.070;2023-04-24T10:03:59;10.25;;;5.93;;
67747;SDS011;54543;50.712;6.070;2023-04-24T10:06:34;13.80;;;6.72;;
67747;SDS011;54543;50.712;6.070;2023-04-24T10:09:00;9.73;;;6.03;;
67747;SDS011;54543;50.712;6.070;2023-04-24T10:11:27;14.82;;;5.90;;
67747;SDS011;54543;50.712;6.070;2023-04-24T10:13:54;18.63;;;8.07;;
67747;SDS011;54543;50.712;6.070;2023-04-24T10:16:22;19.80;;;7.65;;
67747;SDS011;54543;50.712;6.070;2023-04-24T10:18:48;11.88;;;6.68;;
67747;SDS011;54543;50.712;6.070;2023-04-24T10:21:14;18.80;;;9.15;;
67747;SDS011;54543;50.712;6.070;2023-04-24T10:23:42;20.13;;;8.52;;
67747;SDS011;54543;50.712;6.070;2023-04-24T10:26:10;13.18;;;7.57;;
67747;SDS011;54543;50.712;6.070;2023-04-24T10:28:44;20.42;;;8.23;;
67747;SDS011;54543;50.712;6.070;2023-04-24T10:31:12;17.20;;;7.32;;
67747;SDS011;54543;50.712;6.070;2023-04-24T10:33:39;13.30;;;6.05;;
67747;SDS011;54543;50.712;6.070;2023-04-24T10:36:07;14.50;;;6.65;;
67747;SDS011;54543;50.712;6.070;2023-04-24T10:38:40;10.82;;;5.97;;
67747;SDS011;54543;50.712;6.070;2023-04-24T10:41:13;10.23;;;5.70;;
67747;SDS011;54543;50.712;6.070;2023-04-24T10:43:45;15.32;;;7.03;;
67747;SDS011;54543;50.712;6.070;2023-04-24T10:46:16;23.05;;;8.82;;
67747;SDS011;54543;50.712;6.070;2023-04-24T10:48:55;22.35;;;8.60;;
67747;SDS011;54543;50.712;6.070;2023-04-24T10:51:22;24.33;;;10.98;;
67747;SDS011;54543;50.712;6.070;2023-04-24T10:53:51;23.02;;;9.38;;
67747;SDS011;54543;50.712;6.070;2023-04-24T10:56:21;17.17;;;9.73;;
67747;SDS011;54543;50.712;6.070;2023-04-24T10:58:50;16.88;;;9.65;;
67747;SDS011;54543;50.712;6.070;2023-04-24T11:01:28;21.10;;;10.07;;
67747;SDS011;54543;50.712;6.070;2023-04-24T11:03:56;23.20;;;10.68;;
67747;SDS011;54543;50.712;6.070;2023-04-24T11:06:33;23.63;;;10.50;;
67747;SDS011;54543;50.712;6.070;2023-04-24T11:09:04;18.58;;;11.10;;
67747;SDS011;54543;50.712;6.070;2023-04-24T11:11:35;22.08;;;9.45;;
67747;SDS011;54543;50.712;6.070;2023-04-24T11:14:06;25.08;;;11.05;;
67747;SDS011;54543;50.712;6.070;2023-04-24T11:16:33;17.70;;;8.70;;
67747;SDS011;54543;50.712;6.070;2023-04-24T11:19:04;23.27;;;10.73;;
67747;SDS011;54543;50.712;6.070;2023-04-24T11:24:30;18.35;;;9.05;;
67747;SDS011;54543;50.712;6.070;2023-04-24T11:34:55;15.95;;;8.00;;
67747;SDS011;54543;50.712;6.070;2023-04-24T11:37:23;19.90;;;8.38;;
67747;SDS011;54543;50.712;6.070;2023-04-24T11:39:56;18.17;;;7.72;;
67747;SDS011;54543;50.712;6.070;2023-04-24T11:42:23;12.43;;;7.30;;
67747;SDS011;54543;50.712;6.070;2023-04-24T11:44:53;19.30;;;8.50;;
67747;SDS011;54543;50.712;6.070;2023-04-24T11:47:31;12.60;;;6.00;;
67747;SDS011;54543;50.712;6.070;2023-04-24T11:49:59;11.73;;;6.68;;
67747;SDS011;54543;50.712;6.070;2023-04-24T11:52:26;11.25;;;6.45;;
67747;SDS011;54543;50.712;6.070;2023-04-24T11:54:52;14.98;;;6.00;;
67747;SDS011;54543;50.712;6.070;2023-04-24T11:57:24;15.02;;;7.47;;
67747;SDS011;54543;50.712;6.070;2023-04-24T11:59:53;14.65;;;6.80;;
67747;SDS011;54543;50.712;6.070;2023-04-24T12:02:28;17.60;;;8.38;;
67747;SDS011;54543;50.712;6.070;2023-04-24T12:04:54;14.50;;;7.67;;
67747;SDS011;54543;50.712;6.070;2023-04-24T12:07:20;13.13;;;5.80;;
67747;SDS011;54543;50.712;6.070;2023-04-24T12:09:47;12.70;;;6.43;;
67747;SDS011;54543;50.712;6.070;2023-04-24T12:12:16;14.63;;;6.65;;
67747;SDS011;54543;50.712;6.070;2023-04-24T12:14:49;15.63;;;7.32;;
67747;SDS011;54543;50.712;6.070;2023-04-24T12:17:17;13.55;;;7.50;;
67747;SDS011;54543;50.712;6.070;2023-04-24T12:19:50;13.20;;;6.40;;
67747;SDS011;54543;50.712;6.070;2023-04-24T12:22:15;13.05;;;7.10;;
67747;SDS011;54543;50.712;6.070;2023-04-24T12:24:57;12.95;;;6.25;;
67747;SDS011;54543;50.712;6.070;2023-04-24T12:27:24;15.45;;;7.00;;
67747;SDS011;54543;50.712;6.070;2023-04-24T12:29:55;12.77;;;6.40;;
67747;SDS011;54543;50.712;6.070;2023-04-24T12:32:21;16.52;;;7.13;;
67747;SDS011;54543;50.712;6.070;2023-04-24T12:34:47;15.65;;;7.47;;
67747;SDS011;54543;50.712;6.070;2023-04-24T12:37:15;15.90;;;7.40;;
67747;SDS011;54543;50.712;6.070;2023-04-24T12:39:44;19.25;;;7.63;;
67747;SDS011;54543;50.712;6.070;2023-04-24T12:42:29;11.13;;;5.80;;
67747;SDS011;54543;50.712;6.070;2023-04-24T12:44:56;11.95;;;6.97;;
67747;SDS011;54543;50.712;6.070;2023-04-24T12:47:26;11.35;;;6.70;;
67747;SDS011;54543;50.712;6.070;2023-04-24T12:49:52;13.43;;;6.43;;
67747;SDS011;54543;50.712;6.070;2023-04-24T12:52:18;13.32;;;6.85;;
67747;SDS011;54543;50.712;6.070;2023-04-24T12:54:46;13.10;;;7.45;;
67747;SDS011;54543;50.712;6.070;2023-04-24T12:57:12;12.48;;;7.13;;
67747;SDS011;54543;50.712;6.070;2023-04-24T12:59:37;12.85;;;6.60;;
67747;SDS011;54543;50.712;6.070;2023-04-24T13:02:04;12.25;;;6.28;;
67747;SDS011;54543;50.712;6.070;2023-04-24T13:04:31;9.93;;;6.05;;
67747;SDS011;54543;50.712;6.070;2023-04-24T13:06:57;11.80;;;6.25;;
67747;SDS011;54543;50.712;6.070;2023-04-24T13:09:23;10.57;;;5.30;;
67747;SDS011;54543;50.712;6.070;2023-04-24T13:11:49;8.57;;;5.38;;
67747;SDS011;54543;50.712;6.070;2023-04-24T13:14:15;9.60;;;5.72;;
67747;SDS011;54543;50.712;6.070;2023-04-24T13:16:41;10.00;;;5.60;;
67747;SDS011;54543;50.712;6.070;2023-04-24T13:19:06;9.15;;;5.03;;
67747;SDS011;54543;50.712;6.070;2023-04-24T13:21:32;9.90;;;5.55;;
67747;SDS011;54543;50.712;6.070;2023-04-24T13:23:58;11.00;;;7.00;;
67747;SDS011;54543;50.712;6.070;2023-04-24T13:26:24;11.05;;;5.80;;
67747;SDS011;54543;50.712;6.070;2023-04-24T13:28:50;7.75;;;5.40;;
67747;SDS011;54543;50.712;6.070;2023-04-24T13:31:15;10.48;;;5.13;;
67747;SDS011;54543;50.712;6.070;2023-04-24T13:33:42;12.13;;;6.57;;
67747;SDS011;54543;50.712;6.070;2023-04-24T13:36:07;10.15;;;5.80;;
67747;SDS011;54543;50.712;6.070;2023-04-24T13:38:33;10.07;;;6.63;;
67747;SDS011;54543;50.712;6.070;2023-04-24T13:40:59;11.05;;;5.85;;
67747;SDS011;54543;50.712;6.070;2023-04-24T13:43:25;11.27;;;6.00;;
67747;SDS011;54543;50.712;6.070;2023-04-24T13:45:51;9.70;;;6.10;;
67747;SDS011;54543;50.712;6.070;2023-04-24T13:48:16;8.82;;;6.00;;
67747;SDS011;54543;50.712;6.070;2023-04-24T13:50:43;10.07;;;5.85;;
67747;SDS011;54543;50.712;6.070;2023-04-24T13:53:09;11.05;;;5.35;;
67747;SDS011;54543;50.712;6.070;2023-04-24T13:55:35;10.82;;;5.70;;
67747;SDS011;54543;50.712;6.070;2023-04-24T13:58:01;10.27;;;5.97;;
67747;SDS011;54543;50.712;6.070;2023-04-24T14:00:27;11.43;;;5.78;;
67747;SDS011;54543;50.712;6.070;2023-04-24T14:02:53;11.75;;;7.07;;
67747;SDS011;54543;50.712;6.070;2023-04-24T14:05:19;10.65;;;6.18;;
67747;SDS011;54543;50.712;6.070;2023-04-24T14:07:46;10.43;;;5.82;;
67747;SDS011;54543;50.712;6.070;2023-04-24T14:10:12;9.82;;;5.55;;
67747;SDS011;54543;50.712;6.070;2023-04-24T14:12:38;9.20;;;5.82;;
67747;SDS011;54543;50.712;6.070;2023-04-24T14:15:04;10.25;;;5.93;;
67747;SDS011;54543;50.712;6.070;2023-04-24T14:17:30;8.23;;;5.55;;
67747;SDS011;54543;50.712;6.070;2023-04-24T14:19:56;10.00;;;6.75;;
67747;SDS011;54543;50.712;6.070;2023-04-24T14:22:22;6.70;;;4.15;;
67747;SDS011;54543;50.712;6.070;2023-04-24T14:24:47;9.60;;;6.40;;
67747;SDS011;54543;50.712;6.070;2023-04-24T14:27:13;8.75;;;5.40;;
67747;SDS011;54543;50.712;6.070;2023-04-24T14:29:39;8.68;;;5.20;;
67747;SDS011;54543;50.712;6.070;2023-04-24T14:32:04;11.18;;;5.40;;
67747;SDS011;54543;50.712;6.070;2023-04-24T14:34:30;8.80;;;5.40;;
67747;SDS011;54543;50.712;6.070;2023-04-24T14:36:56;9.88;;;5.15;;
67747;SDS011;54543;50.712;6.070;2023-04-24T14:39:21;9.35;;;5.18;;
67747;SDS011;54543;50.712;6.070;2023-04-24T14:41:47;8.82;;;5.45;;
67747;SDS011;54543;50.712;6.070;2023-04-24T14:44:12;8.95;;;4.93;;
67747;SDS011;54543;50.712;6.070;2023-04-24T14:46:38;10.05;;;5.25;;
67747;SDS011;54543;50.712;6.070;2023-04-24T14:49:03;7.30;;;4.88;;
67747;SDS011;54543;50.712;6.070;2023-04-24T14:51:29;7.25;;;4.75;;
67747;SDS011;54543;50.712;6.070;2023-04-24T14:53:56;9.38;;;4.88;;
67747;SDS011;54543;50.712;6.070;2023-04-24T14:56:21;8.52;;;4.90;;
67747;SDS011;54543;50.712;6.070;2023-04-24T14:58:48;9.68;;;5.65;;
67747;SDS011;54543;50.712;6.070;2023-04-24T15:01:13;8.45;;;5.80;;
67747;SDS011;54543;50.712;6.070;2023-04-24T15:03:39;7.55;;;4.53;;
67747;SDS011;54543;50.712;6.070;2023-04-24T15:06:04;7.25;;;5.00;;
67747;SDS011;54543;50.712;6.070;2023-04-24T15:08:30;8.13;;;5.32;;
67747;SDS011;54543;50.712;6.070;2023-04-24T15:10:56;7.85;;;5.00;;
67747;SDS011;54543;50.712;6.070;2023-04-24T15:13:21;6.28;;;3.88;;
67747;SDS011;54543;50.712;6.070;2023-04-24T15:15:47;7.97;;;4.72;;
67747;SDS011;54543;50.712;6.070;2023-04-24T15:18:13;7.22;;;4.32;;
67747;SDS011;54543;50.712;6.070;2023-04-24T15:20:38;6.40;;;4.53;;
67747;SDS011;54543;50.712;6.070;2023-04-24T15:23:05;8.02;;;4.30;;
67747;SDS011;54543;50.712;6.070;2023-04-24T15:25:30;7.93;;;5.25;;
67747;SDS011;54543;50.712;6.070;2023-04-24T15:27:57;8.68;;;5.03;;
67747;SDS011;54543;50.712;6.070;2023-04-24T15:30:23;7.00;;;4.40;;
67747;SDS011;54543;50.712;6.070;2023-04-24T15:32:49;8.05;;;5.05;;
67747;SDS011;54543;50.712;6.070;2023-04-24T15:35:15;7.03;;;4.10;;
67747;SDS011;54543;50.712;6.070;2023-04-24T15:37:41;9.70;;;5.00;;
67747;SDS011;54543;50.712;6.070;2023-04-24T15:40:07;7.32;;;4.03;;
67747;SDS011;54543;50.712;6.070;2023-04-24T15:42:33;11.35;;;5.43;;
67747;SDS011;54543;50.712;6.070;2023-04-24T15:44:59;8.80;;;5.22;;
67747;SDS011;54543;50.712;6.070;2023-04-24T15:47:25;9.40;;;5.00;;
67747;SDS011;54543;50.712;6.070;2023-04-24T15:49:51;8.82;;;4.85;;
67747;SDS011;54543;50.712;6.070;2023-04-24T15:52:17;9.52;;;4.95;;
67747;SDS011;54543;50.712;6.070;2023-04-24T15:54:43;7.13;;;4.53;;
67747;SDS011;54543;50.712;6.070;2023-04-24T15:57:09;10.45;;;5.00;;
67747;SDS011;54543;50.712;6.070;2023-04-24T15:59:34;7.45;;;4.45;;
67747;SDS011;54543;50.712;6.070;2023-04-24T16:02:01;5.43;;;3.78;;
67747;SDS011;54543;50.712;6.070;2023-04-24T16:04:28;8.10;;;4.80;;
67747;SDS011;54543;50.712;6.070;2023-04-24T16:06:54;7.07;;;4.47;;
67747;SDS011;54543;50.712;6.070;2023-04-24T16:09:21;7.90;;;4.20;;
67747;SDS011;54543;50.712;6.070;2023-04-24T16:11:47;9.07;;;5.28;;
67747;SDS011;54543;50.712;6.070;2023-04-24T16:14:13;8.23;;;4.25;;
67747;SDS011;54543;50.712;6.070;2023-04-24T16:16:38;6.55;;;3.75;;
67747;SDS011;54543;50.712;6.070;2023-04-24T16:19:04;8.50;;;5.03;;
67747;SDS011;54543;50.712;6.070;2023-04-24T16:21:32;7.55;;;4.63;;
67747;SDS011;54543;50.712;6.070;2023-04-24T16:23:58;8.57;;;5.15;;
67747;SDS011;54543;50.712;6.070;2023-04-24T16:26:23;11.02;;;6.68;;